MSC Luisa — H9XU — position and weather

sailwx.info

Track history (hours):
 
Tides and Currents Weather Stations Pressure Air Temp Water Temp Dewpoint Dewpoint Depression Visibility Wind Speed Wind Dir Waves Ship Positions

MSC Luisa

Last reported at 2016-Sep-19 09:33 UTC. Time now 2016-Sep-28 17:06 UTC.
Position N 17°33' W 060°58'.
Warning: this ship's position is 9 days out of date.

; draft 10.7 m.

Type: Ship. MMSI: 355308000.

Date/timePositionNaut miles runAvg speedWind from/ knotsBaromVisibWave heightAir tempDewpointWater temp
2016-Sep-19 09:33N 17°33' W 060°58'4020.1
2016-Sep-19 07:33N 17°58' W 061°30'  
2016-Sep-16 03:33N 26°25' W 078°56'1 0.9
2016-Sep-16 02:17N 26°26' W 078°55'335 9.8
2016-Sep-14 16:05N 31°52' W 080°20'3614.1
2016-Sep-14 13:33N 32°05' W 080°59'7 7.0
2016-Sep-14 12:33N 32°06' W 081°07'1 0.6
2016-Sep-14 10:33N 32°07' W 081°08'0 0.0
2016-Sep-14 09:33N 32°07' W 081°08'0 0.0
2016-Sep-14 08:33N 32°07' W 081°08'0 0.0
2016-Sep-14 07:33N 32°07' W 081°08'0 0.0
2016-Sep-14 06:27N 32°07' W 081°08'0 0.0
2016-Sep-14 03:30N 32°07' W 081°08'0 0.0
2016-Sep-13 18:33N 32°07' W 081°08'0 0.1
2016-Sep-13 17:33N 32°07' W 081°08'7 6.7
2016-Sep-13 16:33N 32°06' W 081°00'28 5.6
2016-Sep-13 11:33N 31°56' W 080°29'5 2.8
2016-Sep-13 09:33N 31°57' W 080°36'33211.0
2016-Sep-12 03:26N 35°04' W 075°06'10016.2
2016-Sep-11 21:15N 36°41' W 075°36'1217.4
2016-Sep-11 20:33N 36°49' W 075°47'1413.7
2016-Sep-11 19:33N 36°58' W 075°60'5616.6
2016-Sep-11 16:12N 37°54' W 076°09'1419.1
2016-Sep-11 15:29N 38°07' W 076°13'3718.8
2016-Sep-11 13:30N 38°43' W 076°26'1718.5
2016-Sep-11 12:33N 39°00' W 076°23'1312.8
2016-Sep-11 11:34N 39°12' W 076°29'4 4.5
2016-Sep-11 10:33N 39°15' W 076°33'0 0.0
2016-Sep-11 08:32N 39°15' W 076°33'0 0.0
2016-Sep-11 07:32N 39°15' W 076°33'0 0.0
2016-Sep-11 03:33N 39°15' W 076°33'0 0.0
2016-Sep-11 02:33N 39°15' W 076°33'0 0.0
2016-Sep-11 01:29N 39°15' W 076°33'0 0.0
2016-Sep-11 00:32N 39°15' W 076°33'0 0.0
2016-Sep-10 23:31N 39°15' W 076°33'0 0.0
2016-Sep-10 22:31N 39°15' W 076°33'0 0.0
2016-Sep-10 21:34N 39°15' W 076°33'2 1.8
2016-Sep-10 20:34N 39°14' W 076°32'1111.0
2016-Sep-10 19:33N 39°05' W 076°24'1515.5
2016-Sep-10 18:34N 38°49' W 076°25'1818.1
2016-Sep-10 17:33N 38°31' W 076°25'1918.6
2016-Sep-10 16:33N 38°14' W 076°16'1918.0
2016-Sep-10 15:31N 37°56' W 076°09'1617.1
2016-Sep-10 14:34N 37°40' W 076°09'3115.5
2016-Sep-10 12:34N 37°09' W 076°09'1515.1
2016-Sep-10 11:33N 36°57' W 075°58'2713.6
2016-Sep-10 09:33N 36°54' W 075°24'1716.1
2016-Sep-10 08:29N 37°06' W 075°08'1516.5
2016-Sep-10 07:33N 37°18' W 074°57'1616.4
2016-Sep-10 06:34N 37°31' W 074°45'1716.7
2016-Sep-10 05:33N 37°45' W 074°33'1616.4
2016-Sep-10 04:34N 37°58' W 074°21'1616.4
2016-Sep-10 03:34N 38°13' W 074°11'2316.0
2016-Sep-10 02:05N 38°34' W 073°59'1016.5
2016-Sep-10 01:29N 38°44' W 073°57'1616.9
2016-Sep-10 00:33N 38°60' W 073°56'1717.1
2016-Sep-09 23:33N 39°17' W 073°54'1717.2
2016-Sep-09 22:33N 39°34' W 073°53'1717.0
2016-Sep-09 21:33N 39°51' W 073°51'2017.2
2016-Sep-09 20:25N 40°11' W 073°50'1616.2
2016-Sep-09 19:25N 40°27' W 073°49'1214.1
2016-Sep-09 18:33N 40°34' W 074°02'7 7.4
2016-Sep-09 17:33N 40°39' W 074°09'2 2.4
2016-Sep-09 16:32N 40°41' W 074°09'0 0.0
2016-Sep-09 15:28N 40°41' W 074°09'0 0.0
2016-Sep-09 14:31N 40°41' W 074°09'0 0.0
2016-Sep-09 13:30N 40°41' W 074°09'0 0.0
2016-Sep-09 12:15N 40°41' W 074°09'0 0.0
2016-Sep-09 11:29N 40°41' W 074°09'  
Track history (hours):
 
Tides and Currents Weather Stations Pressure Air Temp Water Temp Dewpoint Dewpoint Depression Visibility Wind Speed Wind Dir Waves Ship Positions

MSC Luisa

Last reported at 2016-Sep-19 09:33 UTC. Time now 2016-Sep-28 17:06 UTC.
Position N 17°33' W 060°58'.
Warning: this ship's position is 9 days out of date.

; draft 10.7 m.

Type: Ship. MMSI: 355308000.

Date/timePositionNaut miles runAvg speedWind from/ knotsBaromVisibWave heightAir tempDewpointWater temp
2016-Sep-19 09:33N 17°33' W 060°58'4020.1
2016-Sep-19 07:33N 17°58' W 061°30'  
2016-Sep-16 03:33N 26°25' W 078°56'1 0.9
2016-Sep-16 02:17N 26°26' W 078°55'335 9.8
2016-Sep-14 16:05N 31°52' W 080°20'3614.1
2016-Sep-14 13:33N 32°05' W 080°59'7 7.0
2016-Sep-14 12:33N 32°06' W 081°07'1 0.6
2016-Sep-14 10:33N 32°07' W 081°08'0 0.0
2016-Sep-14 09:33N 32°07' W 081°08'0 0.0
2016-Sep-14 08:33N 32°07' W 081°08'0 0.0
2016-Sep-14 07:33N 32°07' W 081°08'0 0.0
2016-Sep-14 06:27N 32°07' W 081°08'0 0.0
2016-Sep-14 03:30N 32°07' W 081°08'0 0.0
2016-Sep-13 18:33N 32°07' W 081°08'0 0.1
2016-Sep-13 17:33N 32°07' W 081°08'7 6.7
2016-Sep-13 16:33N 32°06' W 081°00'28 5.6
2016-Sep-13 11:33N 31°56' W 080°29'5 2.8
2016-Sep-13 09:33N 31°57' W 080°36'33211.0
2016-Sep-12 03:26N 35°04' W 075°06'10016.2
2016-Sep-11 21:15N 36°41' W 075°36'1217.4
2016-Sep-11 20:33N 36°49' W 075°47'1413.7
2016-Sep-11 19:33N 36°58' W 075°60'5616.6
2016-Sep-11 16:12N 37°54' W 076°09'1419.1
2016-Sep-11 15:29N 38°07' W 076°13'3718.8
2016-Sep-11 13:30N 38°43' W 076°26'1718.5
2016-Sep-11 12:33N 39°00' W 076°23'1312.8
2016-Sep-11 11:34N 39°12' W 076°29'4 4.5
2016-Sep-11 10:33N 39°15' W 076°33'0 0.0
2016-Sep-11 08:32N 39°15' W 076°33'0 0.0
2016-Sep-11 07:32N 39°15' W 076°33'0 0.0
2016-Sep-11 03:33N 39°15' W 076°33'0 0.0
2016-Sep-11 02:33N 39°15' W 076°33'0 0.0
2016-Sep-11 01:29N 39°15' W 076°33'0 0.0
2016-Sep-11 00:32N 39°15' W 076°33'0 0.0
2016-Sep-10 23:31N 39°15' W 076°33'0 0.0
2016-Sep-10 22:31N 39°15' W 076°33'0 0.0
2016-Sep-10 21:34N 39°15' W 076°33'2 1.8
2016-Sep-10 20:34N 39°14' W 076°32'1111.0
2016-Sep-10 19:33N 39°05' W 076°24'1515.5
2016-Sep-10 18:34N 38°49' W 076°25'1818.1
2016-Sep-10 17:33N 38°31' W 076°25'1918.6
2016-Sep-10 16:33N 38°14' W 076°16'1918.0
2016-Sep-10 15:31N 37°56' W 076°09'1617.1
2016-Sep-10 14:34N 37°40' W 076°09'3115.5
2016-Sep-10 12:34N 37°09' W 076°09'1515.1
2016-Sep-10 11:33N 36°57' W 075°58'2713.6
2016-Sep-10 09:33N 36°54' W 075°24'1716.1
2016-Sep-10 08:29N 37°06' W 075°08'1516.5
2016-Sep-10 07:33N 37°18' W 074°57'1616.4
2016-Sep-10 06:34N 37°31' W 074°45'1716.7
2016-Sep-10 05:33N 37°45' W 074°33'1616.4
2016-Sep-10 04:34N 37°58' W 074°21'1616.4
2016-Sep-10 03:34N 38°13' W 074°11'2316.0
2016-Sep-10 02:05N 38°34' W 073°59'1016.5
2016-Sep-10 01:29N 38°44' W 073°57'1616.9
2016-Sep-10 00:33N 38°60' W 073°56'1717.1
2016-Sep-09 23:33N 39°17' W 073°54'1717.2
2016-Sep-09 22:33N 39°34' W 073°53'1717.0
2016-Sep-09 21:33N 39°51' W 073°51'2017.2
2016-Sep-09 20:25N 40°11' W 073°50'1616.2
2016-Sep-09 19:25N 40°27' W 073°49'1214.1
2016-Sep-09 18:33N 40°34' W 074°02'7 7.4
2016-Sep-09 17:33N 40°39' W 074°09'2 2.4
2016-Sep-09 16:32N 40°41' W 074°09'0 0.0
2016-Sep-09 15:28N 40°41' W 074°09'0 0.0
2016-Sep-09 14:31N 40°41' W 074°09'0 0.0
2016-Sep-09 13:30N 40°41' W 074°09'0 0.0
2016-Sep-09 12:15N 40°41' W 074°09'0 0.0
2016-Sep-09 11:29N 40°41' W 074°09'  

Dump ship's entire track history